sensor_id;sensor_type;location;lat;lon;timestamp;P1;durP1;ratioP1;P2;durP2;ratioP2
16870;SDS011;8552;48.120;-1.456;2022-10-16T00:01:45;6.18;;;4.32;;
16870;SDS011;8552;48.120;-1.456;2022-10-16T00:04:11;6.63;;;4.80;;
16870;SDS011;8552;48.120;-1.456;2022-10-16T00:06:38;12.88;;;6.50;;
16870;SDS011;8552;48.120;-1.456;2022-10-16T00:09:04;8.73;;;6.70;;
16870;SDS011;8552;48.120;-1.456;2022-10-16T00:11:32;9.63;;;5.88;;
16870;SDS011;8552;48.120;-1.456;2022-10-16T00:14:02;8.80;;;6.18;;
16870;SDS011;8552;48.120;-1.456;2022-10-16T00:16:29;8.90;;;6.70;;
16870;SDS011;8552;48.120;-1.456;2022-10-16T00:18:56;10.02;;;6.70;;
16870;SDS011;8552;48.120;-1.456;2022-10-16T00:21:23;13.93;;;6.70;;
16870;SDS011;8552;48.120;-1.456;2022-10-16T00:23:52;11.73;;;7.65;;
16870;SDS011;8552;48.120;-1.456;2022-10-16T00:26:22;11.98;;;6.93;;
16870;SDS011;8552;48.120;-1.456;2022-10-16T00:28:48;12.10;;;7.18;;
16870;SDS011;8552;48.120;-1.456;2022-10-16T00:31:16;13.98;;;7.63;;
16870;SDS011;8552;48.120;-1.456;2022-10-16T00:33:44;10.55;;;7.18;;
16870;SDS011;8552;48.120;-1.456;2022-10-16T00:36:11;15.52;;;8.95;;
16870;SDS011;8552;48.120;-1.456;2022-10-16T00:38:38;17.00;;;7.88;;
16870;SDS011;8552;48.120;-1.456;2022-10-16T00:41:04;12.65;;;8.02;;
16870;SDS011;8552;48.120;-1.456;2022-10-16T00:43:44;10.77;;;7.75;;
16870;SDS011;8552;48.120;-1.456;2022-10-16T00:46:22;16.92;;;7.88;;
16870;SDS011;8552;48.120;-1.456;2022-10-16T00:51:36;17.73;;;8.32;;
16870;SDS011;8552;48.120;-1.456;2022-10-16T00:54:07;12.05;;;7.85;;
16870;SDS011;8552;48.120;-1.456;2022-10-16T00:56:38;14.68;;;7.95;;
16870;SDS011;8552;48.120;-1.456;2022-10-16T00:59:06;18.38;;;8.88;;
16870;SDS011;8552;48.120;-1.456;2022-10-16T01:01:40;11.60;;;7.85;;
16870;SDS011;8552;48.120;-1.456;2022-10-16T01:04:06;16.65;;;8.55;;
16870;SDS011;8552;48.120;-1.456;2022-10-16T01:14:23;16.33;;;6.80;;
16870;SDS011;8552;48.120;-1.456;2022-10-16T01:17:01;10.57;;;6.75;;
16870;SDS011;8552;48.120;-1.456;2022-10-16T01:19:42;12.48;;;7.28;;
16870;SDS011;8552;48.120;-1.456;2022-10-16T01:22:33;13.27;;;7.85;;
16870;SDS011;8552;48.120;-1.456;2022-10-16T01:25:05;11.50;;;6.45;;
16870;SDS011;8552;48.120;-1.456;2022-10-16T01:27:38;10.00;;;5.85;;
16870;SDS011;8552;48.120;-1.456;2022-10-16T01:30:11;9.77;;;5.85;;
16870;SDS011;8552;48.120;-1.456;2022-10-16T01:32:47;9.73;;;6.22;;
16870;SDS011;8552;48.120;-1.456;2022-10-16T01:35:23;10.50;;;5.88;;
16870;SDS011;8552;48.120;-1.456;2022-10-16T01:40:26;11.15;;;6.32;;
16870;SDS011;8552;48.120;-1.456;2022-10-16T01:42:59;10.88;;;5.57;;
16870;SDS011;8552;48.120;-1.456;2022-10-16T01:45:28;7.80;;;5.43;;
16870;SDS011;8552;48.120;-1.456;2022-10-16T01:47:56;9.57;;;5.85;;
16870;SDS011;8552;48.120;-1.456;2022-10-16T01:50:24;11.23;;;5.72;;
16870;SDS011;8552;48.120;-1.456;2022-10-16T01:52:52;10.73;;;5.53;;
16870;SDS011;8552;48.120;-1.456;2022-10-16T01:55:22;11.82;;;6.22;;
16870;SDS011;8552;48.120;-1.456;2022-10-16T01:57:53;10.50;;;5.63;;
16870;SDS011;8552;48.120;-1.456;2022-10-16T02:00:21;10.05;;;5.57;;
16870;SDS011;8552;48.120;-1.456;2022-10-16T02:02:49;10.23;;;6.15;;
16870;SDS011;8552;48.120;-1.456;2022-10-16T02:07:46;12.63;;;5.32;;
16870;SDS011;8552;48.120;-1.456;2022-10-16T02:10:13;11.13;;;5.43;;
16870;SDS011;8552;48.120;-1.456;2022-10-16T02:12:40;13.75;;;5.65;;
16870;SDS011;8552;48.120;-1.456;2022-10-16T02:15:09;9.05;;;5.38;;
16870;SDS011;8552;48.120;-1.456;2022-10-16T02:17:35;9.02;;;5.35;;
16870;SDS011;8552;48.120;-1.456;2022-10-16T02:20:01;13.45;;;5.70;;
16870;SDS011;8552;48.120;-1.456;2022-10-16T02:22:28;12.10;;;5.68;;
16870;SDS011;8552;48.120;-1.456;2022-10-16T02:25:10;12.13;;;6.07;;
16870;SDS011;8552;48.120;-1.456;2022-10-16T02:28:22;12.05;;;5.93;;
16870;SDS011;8552;48.120;-1.456;2022-10-16T02:30:58;9.43;;;5.70;;
16870;SDS011;8552;48.120;-1.456;2022-10-16T02:33:28;9.65;;;5.03;;
16870;SDS011;8552;48.120;-1.456;2022-10-16T02:35:55;11.40;;;5.53;;
16870;SDS011;8552;48.120;-1.456;2022-10-16T02:38:22;10.02;;;5.90;;
16870;SDS011;8552;48.120;-1.456;2022-10-16T02:40:49;15.02;;;5.20;;
16870;SDS011;8552;48.120;-1.456;2022-10-16T02:43:15;10.23;;;5.43;;
16870;SDS011;8552;48.120;-1.456;2022-10-16T02:45:42;14.45;;;5.80;;
16870;SDS011;8552;48.120;-1.456;2022-10-16T02:48:07;12.20;;;5.85;;
16870;SDS011;8552;48.120;-1.456;2022-10-16T02:50:33;9.18;;;5.55;;
16870;SDS011;8552;48.120;-1.456;2022-10-16T02:52:59;11.32;;;5.88;;
16870;SDS011;8552;48.120;-1.456;2022-10-16T02:55:24;11.95;;;6.35;;
16870;SDS011;8552;48.120;-1.456;2022-10-16T02:57:51;13.05;;;5.82;;
16870;SDS011;8552;48.120;-1.456;2022-10-16T03:00:17;13.52;;;6.45;;
16870;SDS011;8552;48.120;-1.456;2022-10-16T03:02:43;11.77;;;6.38;;
16870;SDS011;8552;48.120;-1.456;2022-10-16T03:05:09;11.57;;;6.47;;
16870;SDS011;8552;48.120;-1.456;2022-10-16T03:07:35;14.68;;;7.53;;
16870;SDS011;8552;48.120;-1.456;2022-10-16T03:10:01;9.10;;;6.47;;
16870;SDS011;8552;48.120;-1.456;2022-10-16T03:12:27;15.10;;;7.00;;
16870;SDS011;8552;48.120;-1.456;2022-10-16T03:14:53;12.10;;;5.95;;
16870;SDS011;8552;48.120;-1.456;2022-10-16T03:17:20;12.50;;;7.35;;
16870;SDS011;8552;48.120;-1.456;2022-10-16T03:19:46;10.50;;;6.72;;
16870;SDS011;8552;48.120;-1.456;2022-10-16T03:22:11;16.45;;;6.97;;
16870;SDS011;8552;48.120;-1.456;2022-10-16T03:24:37;9.35;;;5.55;;
16870;SDS011;8552;48.120;-1.456;2022-10-16T03:27:03;10.25;;;6.30;;
16870;SDS011;8552;48.120;-1.456;2022-10-16T03:29:28;16.05;;;6.78;;
16870;SDS011;8552;48.120;-1.456;2022-10-16T03:31:55;14.13;;;7.25;;
16870;SDS011;8552;48.120;-1.456;2022-10-16T03:34:21;10.02;;;6.95;;
16870;SDS011;8552;48.120;-1.456;2022-10-16T03:36:47;11.60;;;6.80;;
16870;SDS011;8552;48.120;-1.456;2022-10-16T03:39:12;14.15;;;7.38;;
16870;SDS011;8552;48.120;-1.456;2022-10-16T03:41:38;14.18;;;6.75;;
16870;SDS011;8552;48.120;-1.456;2022-10-16T03:44:04;14.38;;;6.80;;
16870;SDS011;8552;48.120;-1.456;2022-10-16T03:46:29;14.60;;;7.00;;
16870;SDS011;8552;48.120;-1.456;2022-10-16T03:48:55;9.30;;;5.90;;
16870;SDS011;8552;48.120;-1.456;2022-10-16T03:51:21;12.68;;;6.90;;
16870;SDS011;8552;48.120;-1.456;2022-10-16T03:53:47;12.95;;;6.85;;
16870;SDS011;8552;48.120;-1.456;2022-10-16T03:56:12;12.88;;;6.85;;
16870;SDS011;8552;48.120;-1.456;2022-10-16T03:58:38;16.38;;;6.70;;
16870;SDS011;8552;48.120;-1.456;2022-10-16T04:01:04;11.60;;;6.07;;
16870;SDS011;8552;48.120;-1.456;2022-10-16T04:03:29;11.10;;;5.90;;
16870;SDS011;8552;48.120;-1.456;2022-10-16T04:05:55;11.20;;;6.20;;
16870;SDS011;8552;48.120;-1.456;2022-10-16T04:08:21;10.23;;;6.30;;
16870;SDS011;8552;48.120;-1.456;2022-10-16T04:10:47;12.45;;;6.07;;
16870;SDS011;8552;48.120;-1.456;2022-10-16T04:13:13;10.40;;;6.63;;
16870;SDS011;8552;48.120;-1.456;2022-10-16T04:15:40;15.52;;;6.57;;
16870;SDS011;8552;48.120;-1.456;2022-10-16T04:18:05;13.35;;;6.80;;
16870;SDS011;8552;48.120;-1.456;2022-10-16T04:20:31;10.25;;;6.43;;
16870;SDS011;8552;48.120;-1.456;2022-10-16T04:22:57;13.57;;;6.85;;
16870;SDS011;8552;48.120;-1.456;2022-10-16T04:25:23;12.23;;;6.93;;
16870;SDS011;8552;48.120;-1.456;2022-10-16T04:27:48;13.02;;;6.43;;
16870;SDS011;8552;48.120;-1.456;2022-10-16T04:30:14;15.65;;;6.65;;
16870;SDS011;8552;48.120;-1.456;2022-10-16T04:32:40;13.07;;;7.25;;
16870;SDS011;8552;48.120;-1.456;2022-10-16T04:35:06;13.00;;;6.50;;
16870;SDS011;8552;48.120;-1.456;2022-10-16T04:37:32;13.70;;;6.40;;
16870;SDS011;8552;48.120;-1.456;2022-10-16T04:39:58;15.30;;;7.82;;
16870;SDS011;8552;48.120;-1.456;2022-10-16T04:42:23;13.05;;;6.95;;
16870;SDS011;8552;48.120;-1.456;2022-10-16T04:44:49;12.48;;;6.63;;
16870;SDS011;8552;48.120;-1.456;2022-10-16T04:47:15;15.48;;;6.05;;
16870;SDS011;8552;48.120;-1.456;2022-10-16T04:49:40;13.45;;;6.93;;
16870;SDS011;8552;48.120;-1.456;2022-10-16T04:52:06;14.23;;;7.40;;
16870;SDS011;8552;48.120;-1.456;2022-10-16T04:54:31;14.82;;;7.53;;
16870;SDS011;8552;48.120;-1.456;2022-10-16T04:56:57;13.88;;;7.40;;
16870;SDS011;8552;48.120;-1.456;2022-10-16T04:59:23;12.32;;;7.63;;
16870;SDS011;8552;48.120;-1.456;2022-10-16T05:01:49;20.17;;;8.88;;
16870;SDS011;8552;48.120;-1.456;2022-10-16T05:04:15;15.15;;;7.60;;
16870;SDS011;8552;48.120;-1.456;2022-10-16T05:06:41;13.02;;;8.27;;
16870;SDS011;8552;48.120;-1.456;2022-10-16T05:09:07;15.88;;;8.30;;
16870;SDS011;8552;48.120;-1.456;2022-10-16T05:11:34;16.25;;;8.88;;
16870;SDS011;8552;48.120;-1.456;2022-10-16T05:14:00;16.48;;;9.02;;
16870;SDS011;8552;48.120;-1.456;2022-10-16T05:16:26;18.58;;;9.50;;
16870;SDS011;8552;48.120;-1.456;2022-10-16T05:18:52;16.73;;;9.00;;
16870;SDS011;8552;48.120;-1.456;2022-10-16T05:21:17;20.33;;;9.25;;
16870;SDS011;8552;48.120;-1.456;2022-10-16T05:23:43;18.60;;;10.02;;
16870;SDS011;8552;48.120;-1.456;2022-10-16T05:26:09;17.25;;;8.48;;
16870;SDS011;8552;48.120;-1.456;2022-10-16T05:28:35;20.05;;;8.38;;
16870;SDS011;8552;48.120;-1.456;2022-10-16T05:31:07;18.70;;;9.00;;
16870;SDS011;8552;48.120;-1.456;2022-10-16T05:33:34;18.48;;;9.13;;
16870;SDS011;8552;48.120;-1.456;2022-10-16T05:36:01;19.73;;;9.45;;
16870;SDS011;8552;48.120;-1.456;2022-10-16T05:38:28;18.27;;;8.18;;
16870;SDS011;8552;48.120;-1.456;2022-10-16T05:40:54;15.55;;;8.82;;
16870;SDS011;8552;48.120;-1.456;2022-10-16T05:43:21;17.58;;;9.15;;
16870;SDS011;8552;48.120;-1.456;2022-10-16T05:45:54;18.80;;;9.85;;
16870;SDS011;8552;48.120;-1.456;2022-10-16T05:48:20;20.95;;;10.10;;
16870;SDS011;8552;48.120;-1.456;2022-10-16T05:50:46;21.30;;;9.60;;
16870;SDS011;8552;48.120;-1.456;2022-10-16T05:53:11;21.27;;;9.48;;
16870;SDS011;8552;48.120;-1.456;2022-10-16T05:55:37;22.38;;;10.57;;
16870;SDS011;8552;48.120;-1.456;2022-10-16T05:58:03;17.70;;;9.15;;
16870;SDS011;8552;48.120;-1.456;2022-10-16T06:00:28;20.33;;;10.00;;
16870;SDS011;8552;48.120;-1.456;2022-10-16T06:02:54;19.95;;;9.48;;
16870;SDS011;8552;48.120;-1.456;2022-10-16T06:05:20;17.05;;;9.25;;
16870;SDS011;8552;48.120;-1.456;2022-10-16T06:07:45;25.40;;;9.95;;
16870;SDS011;8552;48.120;-1.456;2022-10-16T06:10:11;18.77;;;10.13;;
16870;SDS011;8552;48.120;-1.456;2022-10-16T06:12:37;23.45;;;10.48;;
16870;SDS011;8552;48.120;-1.456;2022-10-16T06:15:02;25.38;;;10.73;;
16870;SDS011;8552;48.120;-1.456;2022-10-16T06:17:28;20.83;;;10.95;;
16870;SDS011;8552;48.120;-1.456;2022-10-16T06:19:54;25.98;;;11.60;;
16870;SDS011;8552;48.120;-1.456;2022-10-16T06:22:20;26.08;;;11.75;;
16870;SDS011;8552;48.120;-1.456;2022-10-16T06:24:45;26.13;;;11.45;;
16870;SDS011;8552;48.120;-1.456;2022-10-16T06:27:12;30.98;;;12.48;;
16870;SDS011;8552;48.120;-1.456;2022-10-16T06:29:38;29.45;;;11.70;;
16870;SDS011;8552;48.120;-1.456;2022-10-16T06:32:03;27.70;;;11.65;;
16870;SDS011;8552;48.120;-1.456;2022-10-16T06:34:29;25.88;;;11.77;;
16870;SDS011;8552;48.120;-1.456;2022-10-16T06:36:55;27.27;;;12.27;;
16870;SDS011;8552;48.120;-1.456;2022-10-16T06:39:20;27.00;;;12.32;;
16870;SDS011;8552;48.120;-1.456;2022-10-16T06:41:46;24.75;;;11.10;;
16870;SDS011;8552;48.120;-1.456;2022-10-16T06:44:12;25.85;;;12.02;;
16870;SDS011;8552;48.120;-1.456;2022-10-16T06:46:37;25.98;;;10.82;;
16870;SDS011;8552;48.120;-1.456;2022-10-16T06:49:03;27.73;;;11.45;;
16870;SDS011;8552;48.120;-1.456;2022-10-16T06:51:29;22.67;;;11.98;;
16870;SDS011;8552;48.120;-1.456;2022-10-16T06:53:56;29.77;;;12.18;;
16870;SDS011;8552;48.120;-1.456;2022-10-16T06:56:23;28.73;;;12.23;;
16870;SDS011;8552;48.120;-1.456;2022-10-16T06:58:50;25.33;;;11.30;;
16870;SDS011;8552;48.120;-1.456;2022-10-16T07:01:19;25.65;;;11.80;;
16870;SDS011;8552;48.120;-1.456;2022-10-16T07:03:46;19.85;;;9.23;;
16870;SDS011;8552;48.120;-1.456;2022-10-16T07:06:13;17.65;;;9.07;;
16870;SDS011;8552;48.120;-1.456;2022-10-16T07:08:41;14.38;;;7.65;;
16870;SDS011;8552;48.120;-1.456;2022-10-16T07:11:12;13.10;;;6.88;;
16870;SDS011;8552;48.120;-1.456;2022-10-16T07:13:40;14.32;;;7.60;;
16870;SDS011;8552;48.120;-1.456;2022-10-16T07:16:08;12.73;;;7.10;;
16870;SDS011;8552;48.120;-1.456;2022-10-16T07:18:35;14.80;;;7.68;;
16870;SDS011;8552;48.120;-1.456;2022-10-16T07:21:05;13.23;;;6.93;;
16870;SDS011;8552;48.120;-1.456;2022-10-16T07:23:31;13.80;;;6.97;;
16870;SDS011;8552;48.120;-1.456;2022-10-16T07:25:57;13.65;;;9.02;;
16870;SDS011;8552;48.120;-1.456;2022-10-16T07:28:23;12.13;;;8.18;;
16870;SDS011;8552;48.120;-1.456;2022-10-16T07:30:48;15.15;;;8.05;;
16870;SDS011;8552;48.120;-1.456;2022-10-16T07:33:14;13.55;;;7.30;;
16870;SDS011;8552;48.120;-1.456;2022-10-16T07:35:50;13.27;;;6.68;;
16870;SDS011;8552;48.120;-1.456;2022-10-16T07:38:16;10.88;;;6.10;;
16870;SDS011;8552;48.120;-1.456;2022-10-16T07:40:43;9.38;;;5.97;;
16870;SDS011;8552;48.120;-1.456;2022-10-16T07:43:09;11.50;;;6.45;;
16870;SDS011;8552;48.120;-1.456;2022-10-16T07:45:35;11.02;;;6.13;;
16870;SDS011;8552;48.120;-1.456;2022-10-16T07:48:00;10.10;;;6.25;;
16870;SDS011;8552;48.120;-1.456;2022-10-16T07:50:26;11.98;;;6.30;;
16870;SDS011;8552;48.120;-1.456;2022-10-16T07:52:52;14.40;;;6.50;;
16870;SDS011;8552;48.120;-1.456;2022-10-16T07:55:17;8.68;;;6.25;;
16870;SDS011;8552;48.120;-1.456;2022-10-16T07:57:43;11.25;;;6.30;;
16870;SDS011;8552;48.120;-1.456;2022-10-16T08:00:09;11.05;;;6.53;;
16870;SDS011;8552;48.120;-1.456;2022-10-16T08:02:41;9.57;;;6.40;;
16870;SDS011;8552;48.120;-1.456;2022-10-16T08:05:07;10.07;;;5.43;;
16870;SDS011;8552;48.120;-1.456;2022-10-16T08:07:33;11.30;;;6.43;;
16870;SDS011;8552;48.120;-1.456;2022-10-16T08:09:59;8.68;;;5.68;;
16870;SDS011;8552;48.120;-1.456;2022-10-16T08:12:25;9.23;;;5.10;;
16870;SDS011;8552;48.120;-1.456;2022-10-16T08:14:51;10.60;;;4.40;;
16870;SDS011;8552;48.120;-1.456;2022-10-16T08:17:17;5.10;;;4.32;;
16870;SDS011;8552;48.120;-1.456;2022-10-16T08:19:46;8.68;;;3.70;;
16870;SDS011;8552;48.120;-1.456;2022-10-16T08:22:15;7.03;;;4.35;;
16870;SDS011;8552;48.120;-1.456;2022-10-16T08:24:40;6.50;;;3.60;;
16870;SDS011;8552;48.120;-1.456;2022-10-16T08:27:06;4.55;;;3.17;;
16870;SDS011;8552;48.120;-1.456;2022-10-16T08:29:33;5.47;;;3.30;;
16870;SDS011;8552;48.120;-1.456;2022-10-16T08:31:59;6.95;;;4.32;;
16870;SDS011;8552;48.120;-1.456;2022-10-16T08:34:25;4.90;;;3.53;;
16870;SDS011;8552;48.120;-1.456;2022-10-16T08:36:52;7.65;;;4.07;;
16870;SDS011;8552;48.120;-1.456;2022-10-16T08:39:19;7.60;;;3.50;;
16870;SDS011;8552;48.120;-1.456;2022-10-16T08:41:57;6.80;;;3.10;;
16870;SDS011;8552;48.120;-1.456;2022-10-16T08:47:28;5.00;;;2.55;;
16870;SDS011;8552;48.120;-1.456;2022-10-16T08:50:02;7.03;;;3.00;;
16870;SDS011;8552;48.120;-1.456;2022-10-16T08:52:38;2.28;;;2.05;;
16870;SDS011;8552;48.120;-1.456;2022-10-16T08:55:09;4.45;;;2.28;;
16870;SDS011;8552;48.120;-1.456;2022-10-16T08:57:56;2.90;;;1.73;;
16870;SDS011;8552;48.120;-1.456;2022-10-16T09:00:27;4.32;;;1.60;;
16870;SDS011;8552;48.120;-1.456;2022-10-16T09:03:04;5.63;;;1.88;;
16870;SDS011;8552;48.120;-1.456;2022-10-16T09:08:53;2.53;;;1.27;;
16870;SDS011;8552;48.120;-1.456;2022-10-16T09:11:41;3.13;;;2.20;;
16870;SDS011;8552;48.120;-1.456;2022-10-16T09:14:29;2.45;;;1.00;;
16870;SDS011;8552;48.120;-1.456;2022-10-16T09:22:34;1.58;;;0.70;;
16870;SDS011;8552;48.120;-1.456;2022-10-16T09:25:01;7.20;;;1.08;;
16870;SDS011;8552;48.120;-1.456;2022-10-16T09:27:38;2.85;;;0.70;;
16870;SDS011;8552;48.120;-1.456;2022-10-16T09:30:11;1.77;;;0.80;;
16870;SDS011;8552;48.120;-1.456;2022-10-16T09:32:45;1.95;;;0.73;;
16870;SDS011;8552;48.120;-1.456;2022-10-16T09:35:18;4.13;;;1.90;;
16870;SDS011;8552;48.120;-1.456;2022-10-16T09:37:50;2.78;;;0.95;;
16870;SDS011;8552;48.120;-1.456;2022-10-16T09:40:24;1.30;;;0.80;;
16870;SDS011;8552;48.120;-1.456;2022-10-16T09:46:05;3.17;;;0.88;;
16870;SDS011;8552;48.120;-1.456;2022-10-16T09:48:38;1.50;;;0.90;;
16870;SDS011;8552;48.120;-1.456;2022-10-16T09:56:35;2.78;;;0.70;;
16870;SDS011;8552;48.120;-1.456;2022-10-16T09:59:17;1.80;;;1.02;;
16870;SDS011;8552;48.120;-1.456;2022-10-16T10:01:48;3.15;;;1.17;;
16870;SDS011;8552;48.120;-1.456;2022-10-16T10:04:14;2.13;;;0.80;;
16870;SDS011;8552;48.120;-1.456;2022-10-16T10:06:50;3.10;;;1.50;;
16870;SDS011;8552;48.120;-1.456;2022-10-16T10:12:05;5.70;;;0.85;;
16870;SDS011;8552;48.120;-1.456;2022-10-16T10:14:49;2.08;;;0.50;;
16870;SDS011;8552;48.120;-1.456;2022-10-16T10:17:25;2.88;;;0.82;;
16870;SDS011;8552;48.120;-1.456;2022-10-16T10:19:53;3.78;;;0.70;;
16870;SDS011;8552;48.120;-1.456;2022-10-16T10:22:26;1.05;;;0.43;;
16870;SDS011;8552;48.120;-1.456;2022-10-16T10:34:02;2.28;;;0.40;;
16870;SDS011;8552;48.120;-1.456;2022-10-16T10:36:48;4.03;;;0.77;;
16870;SDS011;8552;48.120;-1.456;2022-10-16T10:56:49;5.25;;;0.77;;
16870;SDS011;8552;48.120;-1.456;2022-10-16T10:59:27;0.82;;;0.40;;
16870;SDS011;8552;48.120;-1.456;2022-10-16T11:03:23;1.00;;;0.50;;
16870;SDS011;8552;48.120;-1.456;2022-10-16T11:10:42;1.27;;;0.45;;
16870;SDS011;8552;48.120;-1.456;2022-10-16T11:13:30;1.75;;;0.95;;
16870;SDS011;8552;48.120;-1.456;2022-10-16T11:16:44;2.05;;;0.70;;
16870;SDS011;8552;48.120;-1.456;2022-10-16T11:19:20;2.67;;;0.77;;
16870;SDS011;8552;48.120;-1.456;2022-10-16T11:23:00;1.17;;;0.80;;
16870;SDS011;8552;48.120;-1.456;2022-10-16T11:25:22;1.55;;;1.05;;
16870;SDS011;8552;48.120;-1.456;2022-10-16T11:27:57;2.53;;;0.93;;
16870;SDS011;8552;48.120;-1.456;2022-10-16T11:30:28;1.20;;;0.60;;
16870;SDS011;8552;48.120;-1.456;2022-10-16T11:33:12;1.00;;;0.82;;
16870;SDS011;8552;48.120;-1.456;2022-10-16T11:35:47;2.88;;;1.33;;
16870;SDS011;8552;48.120;-1.456;2022-10-16T11:41:48;2.80;;;0.82;;
16870;SDS011;8552;48.120;-1.456;2022-10-16T11:46:52;5.45;;;2.80;;
16870;SDS011;8552;48.120;-1.456;2022-10-16T11:49:33;5.00;;;3.10;;
16870;SDS011;8552;48.120;-1.456;2022-10-16T11:57:32;2.25;;;2.05;;
16870;SDS011;8552;48.120;-1.456;2022-10-16T12:00:10;2.40;;;1.35;;
16870;SDS011;8552;48.120;-1.456;2022-10-16T12:07:54;3.13;;;1.75;;
16870;SDS011;8552;48.120;-1.456;2022-10-16T12:10:36;2.15;;;1.70;;
16870;SDS011;8552;48.120;-1.456;2022-10-16T12:13:03;5.70;;;2.00;;
16870;SDS011;8552;48.120;-1.456;2022-10-16T12:15:32;2.15;;;1.95;;
16870;SDS011;8552;48.120;-1.456;2022-10-16T12:17:59;3.42;;;2.03;;
16870;SDS011;8552;48.120;-1.456;2022-10-16T12:25:32;2.78;;;2.50;;
16870;SDS011;8552;48.120;-1.456;2022-10-16T12:28:00;1.80;;;1.60;;
16870;SDS011;8552;48.120;-1.456;2022-10-16T12:30:29;5.63;;;3.20;;
16870;SDS011;8552;48.120;-1.456;2022-10-16T12:33:06;6.95;;;4.78;;
16870;SDS011;8552;48.120;-1.456;2022-10-16T12:35:43;7.95;;;2.45;;
16870;SDS011;8552;48.120;-1.456;2022-10-16T12:38:20;3.40;;;2.75;;
16870;SDS011;8552;48.120;-1.456;2022-10-16T12:40:56;2.50;;;2.30;;
16870;SDS011;8552;48.120;-1.456;2022-10-16T12:43:34;3.25;;;2.10;;
16870;SDS011;8552;48.120;-1.456;2022-10-16T12:48:35;5.95;;;2.00;;
16870;SDS011;8552;48.120;-1.456;2022-10-16T12:53:57;3.00;;;2.13;;
16870;SDS011;8552;48.120;-1.456;2022-10-16T12:56:51;3.22;;;2.30;;
16870;SDS011;8552;48.120;-1.456;2022-10-16T13:07:56;6.40;;;2.50;;
16870;SDS011;8552;48.120;-1.456;2022-10-16T13:10:58;3.65;;;3.15;;
16870;SDS011;8552;48.120;-1.456;2022-10-16T13:19:08;2.38;;;1.70;;
16870;SDS011;8552;48.120;-1.456;2022-10-16T13:21:55;2.00;;;1.90;;
16870;SDS011;8552;48.120;-1.456;2022-10-16T13:24:40;2.00;;;1.80;;
16870;SDS011;8552;48.120;-1.456;2022-10-16T13:27:46;1.60;;;1.50;;
16870;SDS011;8552;48.120;-1.456;2022-10-16T13:30:19;2.13;;;1.55;;
16870;SDS011;8552;48.120;-1.456;2022-10-16T13:32:49;1.70;;;1.60;;
16870;SDS011;8552;48.120;-1.456;2022-10-16T13:35:24;1.50;;;1.40;;
16870;SDS011;8552;48.120;-1.456;2022-10-16T13:38:02;2.92;;;1.42;;
16870;SDS011;8552;48.120;-1.456;2022-10-16T13:40:29;2.78;;;1.10;;
16870;SDS011;8552;48.120;-1.456;2022-10-16T13:42:55;3.13;;;2.38;;
16870;SDS011;8552;48.120;-1.456;2022-10-16T13:45:22;3.20;;;2.50;;
16870;SDS011;8552;48.120;-1.456;2022-10-16T13:48:00;4.75;;;2.85;;
16870;SDS011;8552;48.120;-1.456;2022-10-16T13:50:30;7.13;;;5.90;;
16870;SDS011;8552;48.120;-1.456;2022-10-16T13:53:05;1.45;;;1.35;;
16870;SDS011;8552;48.120;-1.456;2022-10-16T13:55:32;1.20;;;1.20;;
16870;SDS011;8552;48.120;-1.456;2022-10-16T13:58:04;5.15;;;3.85;;
16870;SDS011;8552;48.120;-1.456;2022-10-16T14:00:32;2.03;;;1.88;;
16870;SDS011;8552;48.120;-1.456;2022-10-16T14:03:00;1.60;;;1.48;;
16870;SDS011;8552;48.120;-1.456;2022-10-16T14:05:29;1.50;;;1.30;;
16870;SDS011;8552;48.120;-1.456;2022-10-16T14:07:55;3.30;;;1.48;;
16870;SDS011;8552;48.120;-1.456;2022-10-16T14:10:29;2.28;;;2.00;;
16870;SDS011;8552;48.120;-1.456;2022-10-16T14:13:04;2.42;;;1.58;;
16870;SDS011;8552;48.120;-1.456;2022-10-16T14:15:32;2.20;;;1.27;;
16870;SDS011;8552;48.120;-1.456;2022-10-16T14:18:00;2.25;;;1.70;;
16870;SDS011;8552;48.120;-1.456;2022-10-16T14:20:27;4.20;;;2.97;;
16870;SDS011;8552;48.120;-1.456;2022-10-16T14:23:03;1.48;;;1.38;;
16870;SDS011;8552;48.120;-1.456;2022-10-16T14:25:43;2.92;;;1.85;;
16870;SDS011;8552;48.120;-1.456;2022-10-16T14:28:17;1.67;;;1.20;;
16870;SDS011;8552;48.120;-1.456;2022-10-16T14:30:55;1.20;;;1.10;;
16870;SDS011;8552;48.120;-1.456;2022-10-16T14:36:04;0.88;;;0.88;;
16870;SDS011;8552;48.120;-1.456;2022-10-16T14:38:36;1.02;;;1.00;;
16870;SDS011;8552;48.120;-1.456;2022-10-16T14:41:04;0.98;;;0.95;;
16870;SDS011;8552;48.120;-1.456;2022-10-16T14:43:37;1.05;;;0.90;;
16870;SDS011;8552;48.120;-1.456;2022-10-16T14:46:11;1.20;;;1.10;;
16870;SDS011;8552;48.120;-1.456;2022-10-16T14:48:42;1.40;;;1.30;;
16870;SDS011;8552;48.120;-1.456;2022-10-16T14:51:17;1.52;;;0.93;;
16870;SDS011;8552;48.120;-1.456;2022-10-16T14:53:44;0.90;;;0.90;;
16870;SDS011;8552;48.120;-1.456;2022-10-16T14:56:17;1.85;;;0.85;;
16870;SDS011;8552;48.120;-1.456;2022-10-16T14:58:45;1.05;;;0.73;;
16870;SDS011;8552;48.120;-1.456;2022-10-16T15:01:11;0.90;;;0.85;;
16870;SDS011;8552;48.120;-1.456;2022-10-16T15:03:37;1.70;;;0.95;;
16870;SDS011;8552;48.120;-1.456;2022-10-16T15:06:03;0.90;;;0.90;;
16870;SDS011;8552;48.120;-1.456;2022-10-16T15:08:39;1.90;;;1.10;;
16870;SDS011;8552;48.120;-1.456;2022-10-16T15:11:05;0.70;;;0.70;;
16870;SDS011;8552;48.120;-1.456;2022-10-16T15:13:37;0.90;;;0.90;;
16870;SDS011;8552;48.120;-1.456;2022-10-16T15:16:02;1.58;;;1.17;;
16870;SDS011;8552;48.120;-1.456;2022-10-16T15:18:28;0.82;;;0.82;;
16870;SDS011;8552;48.120;-1.456;2022-10-16T15:20:54;1.40;;;1.30;;
16870;SDS011;8552;48.120;-1.456;2022-10-16T15:23:20;1.42;;;1.10;;
16870;SDS011;8552;48.120;-1.456;2022-10-16T15:25:50;1.95;;;1.42;;
16870;SDS011;8552;48.120;-1.456;2022-10-16T15:28:18;1.23;;;1.13;;
16870;SDS011;8552;48.120;-1.456;2022-10-16T15:30:45;1.40;;;1.30;;
16870;SDS011;8552;48.120;-1.456;2022-10-16T15:33:22;1.33;;;1.23;;
16870;SDS011;8552;48.120;-1.456;2022-10-16T15:35:55;2.58;;;1.88;;
16870;SDS011;8552;48.120;-1.456;2022-10-16T15:38:22;1.65;;;1.55;;
16870;SDS011;8552;48.120;-1.456;2022-10-16T15:40:48;1.70;;;1.60;;
16870;SDS011;8552;48.120;-1.456;2022-10-16T15:43:14;2.70;;;1.88;;
16870;SDS011;8552;48.120;-1.456;2022-10-16T15:45:40;2.42;;;1.92;;
16870;SDS011;8552;48.120;-1.456;2022-10-16T15:48:06;1.98;;;1.52;;
16870;SDS011;8552;48.120;-1.456;2022-10-16T15:50:35;1.63;;;1.52;;
16870;SDS011;8552;48.120;-1.456;2022-10-16T15:53:03;4.00;;;1.83;;
16870;SDS011;8552;48.120;-1.456;2022-10-16T15:55:29;3.45;;;2.00;;
16870;SDS011;8552;48.120;-1.456;2022-10-16T15:57:54;2.45;;;2.20;;
16870;SDS011;8552;48.120;-1.456;2022-10-16T16:00:20;4.75;;;3.78;;
16870;SDS011;8552;48.120;-1.456;2022-10-16T16:02:52;3.33;;;2.50;;
16870;SDS011;8552;48.120;-1.456;2022-10-16T16:05:25;4.13;;;2.72;;
16870;SDS011;8552;48.120;-1.456;2022-10-16T16:07:53;3.25;;;2.70;;
16870;SDS011;8552;48.120;-1.456;2022-10-16T16:10:19;3.50;;;2.92;;
16870;SDS011;8552;48.120;-1.456;2022-10-16T16:12:49;5.85;;;4.50;;
16870;SDS011;8552;48.120;-1.456;2022-10-16T16:15:21;2.85;;;2.08;;
16870;SDS011;8552;48.120;-1.456;2022-10-16T16:17:50;4.10;;;2.83;;
16870;SDS011;8552;48.120;-1.456;2022-10-16T16:20:23;2.63;;;2.38;;
16870;SDS011;8552;48.120;-1.456;2022-10-16T16:23:01;3.95;;;3.17;;
16870;SDS011;8552;48.120;-1.456;2022-10-16T16:25:35;5.07;;;3.78;;
16870;SDS011;8552;48.120;-1.456;2022-10-16T16:28:06;4.40;;;3.75;;
16870;SDS011;8552;48.120;-1.456;2022-10-16T16:30:32;3.28;;;2.60;;
16870;SDS011;8552;48.120;-1.456;2022-10-16T16:32:58;3.88;;;3.00;;
16870;SDS011;8552;48.120;-1.456;2022-10-16T16:35:24;3.25;;;2.70;;
16870;SDS011;8552;48.120;-1.456;2022-10-16T16:37:49;2.30;;;2.10;;
16870;SDS011;8552;48.120;-1.456;2022-10-16T16:40:15;6.30;;;2.72;;
16870;SDS011;8552;48.120;-1.456;2022-10-16T16:42:40;2.95;;;2.60;;
16870;SDS011;8552;48.120;-1.456;2022-10-16T16:45:06;3.03;;;2.65;;
16870;SDS011;8552;48.120;-1.456;2022-10-16T16:47:32;3.00;;;2.70;;
16870;SDS011;8552;48.120;-1.456;2022-10-16T16:49:58;6.53;;;2.75;;
16870;SDS011;8552;48.120;-1.456;2022-10-16T16:52:24;3.03;;;2.60;;